createdAt,value
2022-09-23T00:00:43.889Z,28.92
2022-09-23T00:03:17.799Z,29.46
2022-09-23T00:06:00.194Z,29.46
2022-09-23T00:08:33.153Z,29.53
2022-09-23T00:11:10.995Z,29.49
2022-09-23T00:13:46.243Z,29.56
2022-09-23T00:16:23.182Z,29.12
2022-09-23T00:18:55.783Z,29.72
2022-09-23T00:21:28.366Z,29.71
2022-09-23T00:24:00.895Z,29.75
2022-09-23T00:26:33.339Z,29.73
2022-09-23T00:29:06.092Z,29.88
2022-09-23T00:31:38.582Z,29.90
2022-09-23T00:34:13.685Z,29.59
2022-09-23T00:36:46.197Z,29.96
2022-09-23T00:39:18.837Z,30.00
2022-09-23T00:41:51.671Z,30.00
2022-09-23T00:44:48.130Z,29.92
2022-09-23T00:47:35.223Z,29.99
2022-09-23T00:50:29.379Z,30.07
2022-09-23T00:53:05.102Z,29.65
2022-09-23T00:55:40.924Z,30.11
2022-09-23T00:58:17.462Z,29.69
2022-09-23T01:00:51.010Z,30.12
2022-09-23T01:03:24.399Z,30.15
2022-09-23T01:05:57.707Z,29.80
2022-09-23T01:08:30.725Z,30.18
2022-09-23T01:11:17.299Z,30.20
2022-09-23T01:14:14.514Z,30.07
2022-09-23T01:17:00.715Z,30.20
2022-09-23T01:19:39.088Z,30.20
2022-09-23T01:22:30.041Z,30.12
2022-09-23T01:25:33.244Z,29.73
2022-09-23T01:28:30.739Z,30.14
2022-09-23T01:31:41.129Z,29.69
2022-09-23T01:34:25.793Z,30.31
2022-09-23T01:37:36.828Z,30.20
2022-09-23T01:40:31.196Z,30.34
2022-09-23T01:43:26.146Z,30.27
2022-09-23T01:46:02.058Z,29.55
2022-09-23T01:48:44.600Z,30.40
2022-09-23T01:51:30.113Z,30.38
2022-09-23T01:54:08.369Z,30.44
2022-09-23T01:56:53.964Z,30.43
2022-09-23T01:59:38.568Z,30.11
2022-09-23T02:02:23.593Z,29.88
2022-09-23T02:05:12.388Z,30.04
2022-09-23T02:08:04.803Z,30.42
2022-09-23T02:10:43.676Z,30.16
2022-09-23T02:13:25.783Z,30.53
2022-09-23T02:16:03.744Z,30.12
2022-09-23T02:18:53.069Z,30.55
2022-09-23T02:21:34.998Z,30.18
2022-09-23T02:24:17.237Z,30.58
2022-09-23T02:27:19.992Z,30.59
2022-09-23T02:30:14.927Z,30.70
2022-09-23T02:33:09.427Z,30.60
2022-09-23T02:35:53.245Z,30.68
2022-09-23T02:38:41.557Z,30.75
2022-09-23T02:41:13.915Z,30.82
2022-09-23T02:43:52.951Z,30.83
2022-09-23T02:46:25.724Z,30.78
2022-09-23T02:49:02.450Z,30.77
2022-09-23T02:51:39.667Z,30.41
2022-09-23T02:54:16.501Z,30.95
2022-09-23T02:56:51.919Z,30.98
2022-09-23T02:59:25.884Z,31.01
2022-09-23T03:02:07.362Z,31.02
2022-09-23T03:04:52.276Z,30.97
2022-09-23T03:07:43.255Z,31.06
2022-09-23T03:10:43.509Z,31.03
2022-09-23T03:13:31.415Z,30.65
2022-09-23T03:16:10.998Z,31.13
2022-09-23T03:18:57.792Z,30.98
2022-09-23T03:21:48.535Z,31.10
2022-09-23T03:24:25.327Z,31.05
2022-09-23T03:27:01.804Z,31.24
2022-09-23T03:29:38.856Z,31.22
2022-09-23T03:32:11.373Z,31.28
2022-09-23T03:34:46.198Z,31.30
2022-09-23T03:37:32.861Z,31.32
2022-09-23T03:40:26.007Z,31.05
2022-09-23T03:43:02.776Z,31.35
2022-09-23T03:45:37.349Z,30.58
2022-09-23T03:48:10.055Z,31.35
2022-09-23T03:50:42.834Z,31.40
2022-09-23T03:53:16.570Z,31.42
2022-09-23T03:55:49.506Z,31.42
2022-09-23T03:58:22.166Z,31.46
2022-09-23T04:00:56.279Z,31.45
2022-09-23T04:03:29.672Z,31.37
2022-09-23T04:06:02.452Z,31.16
2022-09-23T04:08:35.016Z,31.53
2022-09-23T04:11:07.590Z,31.56
2022-09-23T04:13:40.093Z,31.56
2022-09-23T04:16:12.553Z,31.24
2022-09-23T04:18:44.938Z,31.61
2022-09-23T04:21:17.536Z,31.63
2022-09-23T04:23:50.047Z,31.67
2022-09-23T04:26:22.490Z,31.68
2022-09-23T04:28:56.679Z,31.25
2022-09-23T04:31:30.270Z,31.71
2022-09-23T04:34:03.069Z,31.60
2022-09-23T04:36:35.572Z,31.74
2022-09-23T04:39:08.216Z,31.68
2022-09-23T04:41:41.047Z,31.75
2022-09-23T04:44:17.249Z,31.78
2022-09-23T04:46:50.776Z,31.78
2022-09-23T04:49:23.482Z,31.80
2022-09-23T04:51:56.042Z,31.81
2022-09-23T04:54:29.419Z,31.83
2022-09-23T04:57:01.846Z,31.75
2022-09-23T04:59:34.256Z,31.84
2022-09-23T05:02:06.861Z,31.84
2022-09-23T05:04:39.636Z,31.90
2022-09-23T05:07:13.233Z,31.89
2022-09-23T05:09:45.690Z,31.90
2022-09-23T05:12:18.224Z,31.95
2022-09-23T05:14:50.979Z,31.97
2022-09-23T05:17:23.543Z,31.99
2022-09-23T05:19:56.061Z,31.81
2022-09-23T05:22:28.493Z,31.70
2022-09-23T05:25:03.055Z,31.95
2022-09-23T05:27:35.528Z,32.04
2022-09-23T05:30:08.618Z,32.07
2022-09-23T05:32:41.512Z,32.09
2022-09-23T05:35:14.114Z,32.13
2022-09-23T05:37:46.675Z,32.14
2022-09-23T05:40:19.212Z,32.14
2022-09-23T05:42:52.915Z,32.16
2022-09-23T05:45:26.969Z,32.19
2022-09-23T05:48:00.403Z,32.20
2022-09-23T05:50:32.987Z,32.21
2022-09-23T05:53:05.783Z,32.24
2022-09-23T05:55:38.246Z,32.26
2022-09-23T05:58:10.695Z,32.21
2022-09-23T06:00:44.826Z,31.82
2022-09-23T06:03:22.061Z,32.30
2022-09-23T06:05:58.387Z,32.31
2022-09-23T06:08:31.103Z,32.19
2022-09-23T06:11:09.288Z,32.33
2022-09-23T06:13:42.636Z,32.30
2022-09-23T06:16:17.311Z,31.93
2022-09-23T06:18:49.698Z,32.39
2022-09-23T06:21:22.778Z,32.17
2022-09-23T06:24:02.076Z,32.42
2022-09-23T06:26:39.284Z,32.45
2022-09-23T06:29:13.772Z,31.98
2022-09-23T06:31:46.467Z,32.39
2022-09-23T06:34:19.344Z,32.51
2022-09-23T06:36:53.256Z,32.56
2022-09-23T06:39:25.679Z,32.58
2022-09-23T06:41:58.080Z,32.61
2022-09-23T06:44:32.453Z,32.62
2022-09-23T06:47:04.940Z,32.65
2022-09-23T06:49:38.424Z,32.65
2022-09-23T06:52:11.344Z,32.63
2022-09-23T06:54:43.773Z,32.70
2022-09-23T06:57:16.744Z,32.70
2022-09-23T06:59:49.289Z,32.70
2022-09-23T07:02:21.989Z,32.72
2022-09-23T07:04:57.786Z,32.76
2022-09-23T07:07:33.080Z,32.78
2022-09-23T07:10:09.317Z,32.74
2022-09-23T07:12:42.047Z,32.87
2022-09-23T07:15:14.542Z,32.89
2022-09-23T07:17:46.919Z,32.92
2022-09-23T07:20:20.326Z,32.97
2022-09-23T07:22:53.727Z,32.99
2022-09-23T07:25:26.283Z,33.02
2022-09-23T07:27:58.777Z,32.92
2022-09-23T07:30:31.288Z,33.07
2022-09-23T07:33:08.500Z,33.10
2022-09-23T07:35:49.526Z,32.88
2022-09-23T07:38:21.966Z,33.12
2022-09-23T07:40:54.495Z,33.17
2022-09-23T07:43:28.735Z,33.21
2022-09-23T07:46:04.656Z,32.68
2022-09-23T07:48:39.119Z,32.87
2022-09-23T07:51:14.782Z,33.30
2022-09-23T07:53:50.590Z,32.84
2022-09-23T07:56:27.124Z,33.28
2022-09-23T07:59:03.273Z,33.37
2022-09-23T08:01:43.324Z,33.45
2022-09-23T08:04:19.350Z,33.04
2022-09-23T08:06:55.597Z,33.07
2022-09-23T08:09:34.635Z,33.35
2022-09-23T08:12:09.790Z,33.46
2022-09-23T08:14:45.587Z,33.61
2022-09-23T08:17:18.089Z,33.64
2022-09-23T08:19:50.822Z,33.58
2022-09-23T08:22:23.779Z,33.69
2022-09-23T08:24:56.829Z,33.72
2022-09-23T08:27:30.822Z,33.67
2022-09-23T08:30:03.199Z,33.77
2022-09-23T08:32:35.799Z,33.81
2022-09-23T08:35:08.881Z,33.85
2022-09-23T08:37:41.870Z,33.63
2022-09-23T08:40:14.555Z,33.90
2022-09-23T08:42:48.307Z,33.85
2022-09-23T08:45:27.813Z,33.92
2022-09-23T08:48:12.862Z,33.96
2022-09-23T08:50:57.706Z,33.94
2022-09-23T08:53:37.071Z,33.56
2022-09-23T08:56:18.094Z,33.99
2022-09-23T08:59:35.470Z,33.91
2022-09-23T09:02:16.145Z,33.63
2022-09-23T09:04:55.983Z,33.89
2022-09-23T09:07:38.152Z,33.98
2022-09-23T09:10:28.287Z,34.02
2022-09-23T09:13:10.882Z,34.00
2022-09-23T09:16:48.321Z,33.89
2022-09-23T09:19:27.520Z,33.61
2022-09-23T09:22:00.088Z,33.96
2022-09-23T09:24:37.052Z,33.60
2022-09-23T09:27:16.516Z,33.86
2022-09-23T09:29:56.083Z,33.63
2022-09-23T09:32:31.053Z,33.59
2022-09-23T09:35:11.471Z,33.38
2022-09-23T09:37:48.759Z,32.80
2022-09-23T09:40:22.081Z,33.18
2022-09-23T09:42:54.794Z,33.12
2022-09-23T09:45:58.091Z,33.08
2022-09-23T09:48:41.175Z,32.96
2022-09-23T09:51:27.605Z,32.76
2022-09-23T09:54:26.120Z,32.12
2022-09-23T09:56:58.925Z,32.89
2022-09-23T09:59:31.843Z,32.88
2022-09-23T10:02:27.464Z,32.43
2022-09-23T10:05:07.471Z,32.07
2022-09-23T10:07:39.937Z,32.49
2022-09-23T10:10:33.854Z,32.76
2022-09-23T10:13:17.731Z,32.49
2022-09-23T10:15:51.370Z,32.76
2022-09-23T10:18:38.916Z,32.71
2022-09-23T10:21:16.958Z,32.25
2022-09-23T10:23:53.974Z,32.63
2022-09-23T10:26:56.549Z,32.28
2022-09-23T10:29:35.379Z,32.10
2022-09-23T10:32:27.066Z,32.53
2022-09-23T10:35:11.073Z,32.51
2022-09-23T10:37:43.579Z,32.54
2022-09-23T10:40:49.537Z,32.51
2022-09-23T10:43:45.775Z,32.43
2022-09-23T10:46:40.373Z,31.95
2022-09-23T10:49:13.775Z,32.40
2022-09-23T10:52:10.405Z,31.83
2022-09-23T10:55:01.033Z,32.30
2022-09-23T10:57:48.612Z,32.32
2022-09-23T11:00:48.296Z,32.31
2022-09-23T11:03:45.273Z,32.33
2022-09-23T11:06:26.831Z,32.32
2022-09-23T11:09:16.818Z,32.27
2022-09-23T11:12:25.679Z,32.10
2022-09-23T11:15:18.118Z,32.11
2022-09-23T11:17:50.838Z,32.22
2022-09-23T11:20:49.785Z,31.80
2022-09-23T11:24:00.418Z,32.03
2022-09-23T11:26:33.502Z,32.22
2022-09-23T11:29:34.044Z,32.27
2022-09-23T11:32:15.904Z,32.36
2022-09-23T11:35:16.794Z,32.27
2022-09-23T11:37:55.377Z,32.39
2022-09-23T11:40:42.360Z,32.35
2022-09-23T11:43:30.683Z,31.97
2022-09-23T11:46:21.328Z,32.34
2022-09-23T11:49:17.375Z,32.24
2022-09-23T11:52:07.613Z,32.34
2022-09-23T11:55:01.227Z,31.87
2022-09-23T11:58:07.128Z,32.28
2022-09-23T12:01:09.206Z,32.12
2022-09-23T12:03:56.869Z,31.93
2022-09-23T12:06:40.371Z,31.45
2022-09-23T12:09:47.063Z,31.38
2022-09-23T12:12:17.360Z,31.82
2022-09-23T12:15:17.565Z,31.08
2022-09-23T12:44:45.979Z,31.51
2022-09-23T12:47:40.224Z,31.57
2022-09-23T12:50:54.632Z,31.47
2022-09-23T12:53:36.636Z,31.54
2022-09-23T12:56:41.481Z,31.43
2022-09-23T12:59:24.041Z,31.46
2022-09-23T13:01:58.031Z,31.56
2022-09-23T13:04:54.466Z,31.56
2022-09-23T13:07:33.693Z,31.58
2022-09-23T13:10:26.860Z,31.53
2022-09-23T13:13:01.900Z,30.69
2022-09-23T13:15:39.006Z,31.52
2022-09-23T13:18:23.904Z,31.46
2022-09-23T13:20:58.480Z,31.51
2022-09-23T13:23:36.516Z,31.52
2022-09-23T13:26:14.767Z,31.44
2022-09-23T13:29:00.587Z,30.84
2022-09-23T13:31:33.274Z,31.30
2022-09-23T13:34:10.158Z,31.07
2022-09-23T13:36:48.430Z,31.05
2022-09-23T13:39:32.609Z,30.82
2022-09-23T13:42:07.030Z,30.69
2022-09-23T13:44:43.108Z,30.60
2022-09-23T13:47:17.420Z,30.38
2022-09-23T13:49:51.566Z,30.36
2022-09-23T13:52:34.017Z,30.12
2022-09-23T13:55:25.350Z,30.19
2022-09-23T13:58:15.820Z,30.01
2022-09-23T14:00:49.582Z,30.08
2022-09-23T14:03:36.848Z,30.01
2022-09-23T14:06:18.747Z,29.79
2022-09-23T14:08:52.876Z,30.03
2022-09-23T14:11:32.934Z,30.01
2022-09-23T14:14:11.126Z,29.57
2022-09-23T14:16:49.361Z,29.89
2022-09-23T14:19:25.970Z,29.36
2022-09-23T14:21:59.367Z,29.80
2022-09-23T14:24:32.242Z,29.74
2022-09-23T14:27:18.626Z,29.75
2022-09-23T14:29:52.633Z,29.73
2022-09-23T14:32:30.172Z,29.70
2022-09-23T14:35:05.895Z,29.66
2022-09-23T14:37:57.173Z,29.63
2022-09-23T14:41:17.147Z,29.10
2022-09-23T14:44:01.640Z,29.61
2022-09-23T14:46:37.632Z,29.31
2022-09-23T14:49:13.977Z,29.56
2022-09-23T14:51:57.901Z,29.45
2022-09-23T14:54:36.411Z,29.53
2022-09-23T14:57:33.500Z,29.42
2022-09-23T15:00:10.506Z,29.50
2022-09-23T15:02:59.234Z,29.46
2022-09-23T15:05:48.278Z,28.92
2022-09-23T15:08:24.514Z,29.26
2022-09-23T15:10:58.850Z,29.29
2022-09-23T15:13:34.888Z,29.34
2022-09-23T15:16:08.219Z,29.15
2022-09-23T15:18:43.163Z,29.16
2022-09-23T15:21:20.086Z,28.85
2022-09-23T15:23:54.362Z,29.23
2022-09-23T15:26:51.475Z,29.07
2022-09-23T15:29:24.976Z,29.22
2022-09-23T15:31:57.496Z,29.40
2022-09-23T15:34:30.044Z,29.46
2022-09-23T15:37:02.491Z,29.50
2022-09-23T15:39:36.219Z,29.52
2022-09-23T15:42:11.786Z,29.51
2022-09-23T15:44:44.588Z,29.48
2022-09-23T15:47:22.999Z,28.63
2022-09-23T15:49:55.508Z,29.48
2022-09-23T15:52:28.498Z,29.46
2022-09-23T15:55:00.850Z,29.46
2022-09-23T15:57:33.653Z,29.43
2022-09-23T16:00:06.486Z,29.42
2022-09-23T16:02:46.509Z,29.22
2022-09-23T16:05:24.983Z,28.94
2022-09-23T16:07:57.424Z,29.31
2022-09-23T16:10:30.586Z,29.30
2022-09-23T16:13:05.314Z,28.76
2022-09-23T16:15:40.658Z,29.30
2022-09-23T16:18:14.193Z,29.29
2022-09-23T16:20:52.854Z,29.28
2022-09-23T16:23:50.887Z,29.11
2022-09-23T16:26:36.278Z,29.09
2022-09-23T16:29:13.372Z,29.21
2022-09-23T16:31:50.693Z,29.21
2022-09-23T16:34:25.936Z,29.19
2022-09-23T16:36:58.667Z,29.08
2022-09-23T16:39:31.509Z,29.11
2022-09-23T16:42:04.185Z,29.08
2022-09-23T16:44:36.624Z,29.13
2022-09-23T16:47:10.225Z,29.13
2022-09-23T16:49:43.861Z,28.56
2022-09-23T16:52:18.391Z,29.08
2022-09-23T16:54:50.861Z,29.07
2022-09-23T16:57:23.251Z,29.01
2022-09-23T17:00:13.749Z,29.06
2022-09-23T17:03:04.785Z,29.04
2022-09-23T17:05:37.671Z,29.01
2022-09-23T17:08:12.144Z,29.00
2022-09-23T17:10:46.360Z,28.98
2022-09-23T17:13:18.921Z,28.91
2022-09-23T17:15:51.933Z,28.96
2022-09-23T17:18:24.834Z,28.94
2022-09-23T17:21:03.248Z,28.93
2022-09-23T17:23:37.979Z,28.93
2022-09-23T17:26:16.237Z,28.93
2022-09-23T17:28:48.783Z,28.91
2022-09-23T17:31:23.471Z,28.87
2022-09-23T17:33:56.093Z,28.88
2022-09-23T17:36:29.521Z,28.80
2022-09-23T17:39:02.021Z,28.87
2022-09-23T17:41:34.875Z,28.87
2022-09-23T17:44:07.408Z,28.85
2022-09-23T17:46:40.104Z,28.75
2022-09-23T17:49:12.989Z,28.72
2022-09-23T17:51:45.742Z,28.81
2022-09-23T17:54:18.184Z,28.73
2022-09-23T17:56:50.569Z,28.68
2022-09-23T17:59:22.991Z,28.74
2022-09-23T18:01:59.189Z,28.73
2022-09-23T18:04:31.761Z,28.63
2022-09-23T18:07:04.261Z,28.67
2022-09-23T18:09:36.623Z,28.68
2022-09-23T18:12:09.011Z,28.70
2022-09-23T18:14:41.401Z,28.66
2022-09-23T18:17:13.783Z,28.62
2022-09-23T18:19:50.708Z,28.66
2022-09-23T18:22:23.370Z,28.64
2022-09-23T18:24:55.893Z,28.64
2022-09-23T18:27:28.299Z,28.63
2022-09-23T18:30:01.042Z,28.57
2022-09-23T18:32:34.781Z,28.25
2022-09-23T18:35:07.714Z,28.46
2022-09-23T18:37:40.127Z,28.63
2022-09-23T18:40:14.634Z,28.44
2022-09-23T18:42:47.321Z,28.55
2022-09-23T18:45:20.280Z,28.60
2022-09-23T18:48:10.798Z,28.47
2022-09-23T18:50:45.231Z,28.56
2022-09-23T18:53:18.256Z,28.51
2022-09-23T18:55:50.639Z,28.57
2022-09-23T18:58:23.942Z,28.54
2022-09-23T19:00:56.430Z,28.52
2022-09-23T19:03:28.878Z,28.52
2022-09-23T19:06:09.657Z,27.99
2022-09-23T19:08:42.754Z,28.51
2022-09-23T19:11:15.522Z,28.48
2022-09-23T19:13:48.709Z,28.48
2022-09-23T19:16:21.130Z,28.46
2022-09-23T19:18:54.097Z,28.39
2022-09-23T19:21:27.733Z,28.32
2022-09-23T19:24:06.141Z,28.43
2022-09-23T19:26:42.670Z,28.41
2022-09-23T19:29:23.325Z,27.94
2022-09-23T19:31:55.732Z,28.38
2022-09-23T19:34:30.724Z,28.37
2022-09-23T19:37:06.034Z,28.36
2022-09-23T19:39:39.118Z,28.28
2022-09-23T19:42:11.597Z,27.81
2022-09-23T19:44:44.126Z,28.34
2022-09-23T19:47:19.053Z,28.31
2022-09-23T19:49:51.502Z,28.30
2022-09-23T19:52:24.351Z,28.31
2022-09-23T19:54:56.769Z,28.24
2022-09-23T19:57:31.131Z,28.29
2022-09-23T20:00:04.006Z,28.30
2022-09-23T20:02:45.106Z,28.29
2022-09-23T20:05:20.236Z,28.22
2022-09-23T20:07:54.261Z,28.16
2022-09-23T20:10:27.809Z,28.25
2022-09-23T20:13:01.158Z,28.24
2022-09-23T20:15:33.547Z,28.24
2022-09-23T20:18:06.060Z,28.25
2022-09-23T20:20:39.495Z,28.24
2022-09-23T20:23:11.915Z,28.07
2022-09-23T20:26:02.888Z,27.81
2022-09-23T20:28:35.270Z,28.19
2022-09-23T20:31:07.855Z,28.19
2022-09-23T20:33:44.400Z,28.17
2022-09-23T20:36:17.023Z,28.18
2022-09-23T20:38:49.497Z,28.18
2022-09-23T20:41:22.620Z,28.14
2022-09-23T20:43:56.196Z,28.05
2022-09-23T20:46:30.358Z,28.16
2022-09-23T20:49:03.367Z,28.02
2022-09-23T20:51:37.207Z,28.14
2022-09-23T20:54:09.775Z,28.10
2022-09-23T20:56:42.440Z,28.10
2022-09-23T20:59:19.108Z,28.10
2022-09-23T21:01:56.863Z,27.97
2022-09-23T21:04:30.551Z,28.03
2022-09-23T21:07:02.971Z,27.99
2022-09-23T21:09:35.772Z,28.07
2022-09-23T21:12:08.569Z,28.06
2022-09-23T21:14:40.995Z,28.05
2022-09-23T21:17:13.309Z,28.06
2022-09-23T21:19:45.882Z,28.03
2022-09-23T21:22:19.317Z,28.04
2022-09-23T21:25:26.323Z,27.98
2022-09-23T21:27:44.662Z,28.01
2022-09-23T21:30:17.150Z,28.04
2022-09-23T21:32:49.526Z,28.03
2022-09-23T21:35:23.072Z,28.01
2022-09-23T21:37:55.457Z,27.96
2022-09-23T21:40:46.040Z,27.99
2022-09-23T21:43:18.691Z,27.97
2022-09-23T21:45:51.546Z,27.89
2022-09-23T21:48:24.020Z,28.01
2022-09-23T21:51:01.107Z,27.45
2022-09-23T21:53:36.346Z,28.01
2022-09-23T21:56:08.825Z,28.05
2022-09-23T21:58:42.769Z,27.96
2022-09-23T22:01:20.719Z,27.96
2022-09-23T22:03:55.904Z,27.51
2022-09-23T22:06:30.487Z,28.04
2022-09-23T22:09:05.974Z,27.44
2022-09-23T22:11:58.315Z,28.03
2022-09-23T22:14:32.050Z,27.83
2022-09-23T22:17:06.651Z,27.50
2022-09-23T22:19:45.895Z,28.04
2022-09-23T22:22:20.377Z,27.64
2022-09-23T22:24:53.487Z,27.90
2022-09-23T22:27:28.700Z,28.02
2022-09-23T22:30:19.166Z,27.97
2022-09-23T22:32:55.083Z,28.02
2022-09-23T22:35:27.836Z,27.88
2022-09-23T22:38:02.497Z,28.06
2022-09-23T22:40:36.146Z,28.04
2022-09-23T22:43:09.090Z,27.70
2022-09-23T22:45:41.582Z,28.04
2022-09-23T22:48:15.094Z,27.84
2022-09-23T22:50:47.865Z,28.04
2022-09-23T22:53:20.659Z,27.66
2022-09-23T22:56:02.725Z,27.99
2022-09-23T22:58:35.179Z,28.04
2022-09-23T23:01:07.622Z,27.88
2022-09-23T23:03:41.871Z,27.80
2022-09-23T23:06:14.656Z,27.78
2022-09-23T23:08:47.212Z,27.73
2022-09-23T23:11:19.622Z,27.75
2022-09-23T23:13:52.086Z,27.71
2022-09-23T23:16:26.835Z,27.68
2022-09-23T23:18:59.293Z,27.61
2022-09-23T23:21:32.937Z,27.67
2022-09-23T23:24:07.270Z,27.73
2022-09-23T23:26:39.669Z,27.73
2022-09-23T23:29:14.363Z,27.57
2022-09-23T23:31:47.184Z,27.69
2022-09-23T23:34:22.328Z,27.75
2022-09-23T23:36:58.487Z,27.78
2022-09-23T23:39:31.274Z,27.76
2022-09-23T23:42:05.248Z,27.78
2022-09-23T23:44:38.443Z,27.67
2022-09-23T23:47:10.801Z,27.93
2022-09-23T23:49:43.256Z,28.09
2022-09-23T23:52:16.066Z,28.15
2022-09-23T23:54:48.490Z,28.26
2022-09-23T23:57:21.115Z,28.26
2022-09-23T23:59:53.531Z,28.39
